Airfield :
LOGIN :

Register | Disclaimer

   EN    FR    IT 

 










Legend :    VFR   Marginal VFR   IFR   Intensive IFR   Very Intensive IFR
Visi :
Ceiling :
>= 8 km
>= 3000ft
5 to 8 km
1000 to 3000 ft
1500m to 5 km
500 to 1000 ft
800 to 1500m
200 to 500 ft
< 800m
< 200 ft
Symbols :   Thunderstorms  Fog  Heavy snow  Heavy precipitations  Wind > 20 kt
SIGMETs :     Misc.  Thunderstorms  Icing  Turbulence  Mountain Waves  Volcanic Ashes







- Airport Elevation : 1058 ft
- IATA code : SCN


EDDR - Saarbrücken

CURRENT METAR :
  • 250620Z 09003KT 020V140 0800 R09/0550V1800U FG BKN001 14/14 Q1018 BECMG 4000 BR SCT001

EXPIRED METARs :
  • 250550Z VRB02KT 0250 R09/0400V0650N FG BKN001 13/13 Q1018 BECMG 0800 SCT001
  • 250520Z VRB01KT 0200 R09/0300D FG BKN001 12/12 Q1018 BECMG 0800 SCT001
  • 250450Z 24001KT 0200 R09/0500N FG BKN001 11/11 Q1018 NOSIG
  • 250420Z 32001KT 0200 R09/0350V0600D FG SCT001 10/10 Q1018 TEMPO BKN001
  • 250350Z VRB01KT 0600 R09/0800VP2000U FG SCT001 10/10 Q1018 TEMPO BKN001

TAF TAF EDDR
Valid from the 25 at 06:00 until the 26 at 06:00 UTC


250500Z 2506/2606 VRB03KT 0200 FG BKN001
BECMG 2506/2507 4000 BR SCT005
BECMG 2507/2509 CAVOK
BECMG 2514/2517 05006KT
No reported NOTAMs for that airfield.



MET'MAP, your aeronautical weather chart ! - Copyright ORBIFLY December 2007 - Disclaimer

ORBIFLY MET'MAP TEAM :

Programming & Development : Alexandra Zaïnal
Concept & Development : Baudouin d'Aumeries
Co-Development & Prog : Marc-Olivier Méhu
Technical & hardware support : Manuel Goepfert

Contact : metmap@orbifly.com




SOURCES & CREDITS :

   NOAA